sensor_id;sensor_type;location;lat;lon;timestamp;pressure;altitude;pressure_sealevel;temperature;humidity
25658;BME280;13517;59.320;18.042;2023-07-16T00:01:57;100574.91;;;16.44;98.29
25658;BME280;13517;59.320;18.042;2023-07-16T00:04:22;100563.13;;;16.34;98.91
25658;BME280;13517;59.320;18.042;2023-07-16T00:06:48;100577.66;;;16.44;99.12
25658;BME280;13517;59.320;18.042;2023-07-16T00:09:13;100568.31;;;16.37;99.55
25658;BME280;13517;59.320;18.042;2023-07-16T00:11:39;100588.53;;;16.54;100.00
25658;BME280;13517;59.320;18.042;2023-07-16T00:14:04;100577.78;;;16.53;100.00
25658;BME280;13517;59.320;18.042;2023-07-16T00:16:30;100542.31;;;16.23;100.00
25658;BME280;13517;59.320;18.042;2023-07-16T00:18:55;100565.84;;;16.34;100.00
25658;BME280;13517;59.320;18.042;2023-07-16T00:21:21;100539.72;;;16.22;100.00
25658;BME280;13517;59.320;18.042;2023-07-16T00:23:46;100584.41;;;16.60;100.00
25658;BME280;13517;59.320;18.042;2023-07-16T00:26:13;100560.53;;;16.42;100.00
25658;BME280;13517;59.320;18.042;2023-07-16T00:28:39;100578.06;;;16.59;100.00
25658;BME280;13517;59.320;18.042;2023-07-16T00:31:04;100562.00;;;16.46;100.00
25658;BME280;13517;59.320;18.042;2023-07-16T00:33:29;100516.63;;;16.26;100.00
25658;BME280;13517;59.320;18.042;2023-07-16T00:35:55;100537.72;;;16.43;100.00
25658;BME280;13517;59.320;18.042;2023-07-16T00:38:20;100573.31;;;16.71;100.00
25658;BME280;13517;59.320;18.042;2023-07-16T00:40:46;100568.59;;;16.73;100.00
25658;BME280;13517;59.320;18.042;2023-07-16T00:43:12;100531.00;;;16.57;100.00
25658;BME280;13517;59.320;18.042;2023-07-16T00:45:39;100493.41;;;16.41;100.00
25658;BME280;13517;59.320;18.042;2023-07-16T00:48:06;100500.88;;;16.59;100.00
25658;BME280;13517;59.320;18.042;2023-07-16T00:50:33;100535.13;;;16.81;100.00
25658;BME280;13517;59.320;18.042;2023-07-16T00:53:02;100535.00;;;16.83;100.00
25658;BME280;13517;59.320;18.042;2023-07-16T00:55:32;100521.34;;;16.83;100.00
25658;BME280;13517;59.320;18.042;2023-07-16T00:58:01;100488.78;;;16.71;100.00
25658;BME280;13517;59.320;18.042;2023-07-16T01:00:34;100534.13;;;16.92;100.00
25658;BME280;13517;59.320;18.042;2023-07-16T01:03:04;100520.19;;;16.95;100.00
25658;BME280;13517;59.320;18.042;2023-07-16T01:05:45;100529.09;;;17.07;100.00
25658;BME280;13517;59.320;18.042;2023-07-16T01:08:14;100506.41;;;17.07;100.00
25658;BME280;13517;59.320;18.042;2023-07-16T01:10:42;100463.75;;;16.86;100.00
25658;BME280;13517;59.320;18.042;2023-07-16T01:13:09;100515.13;;;17.20;100.00
25658;BME280;13517;59.320;18.042;2023-07-16T01:15:34;100471.78;;;16.97;100.00
25658;BME280;13517;59.320;18.042;2023-07-16T01:17:59;100495.03;;;17.11;100.00
25658;BME280;13517;59.320;18.042;2023-07-16T01:20:25;100492.28;;;17.21;100.00
25658;BME280;13517;59.320;18.042;2023-07-16T01:23:17;100500.59;;;17.29;100.00
25658;BME280;13517;59.320;18.042;2023-07-16T01:26:02;100490.34;;;17.41;100.00
25658;BME280;13517;59.320;18.042;2023-07-16T01:28:49;100492.91;;;17.43;100.00
25658;BME280;13517;59.320;18.042;2023-07-16T01:31:18;100462.66;;;17.26;100.00
25658;BME280;13517;59.320;18.042;2023-07-16T01:33:47;100478.03;;;17.27;100.00
25658;BME280;13517;59.320;18.042;2023-07-16T01:36:12;100508.41;;;17.52;100.00
25658;BME280;13517;59.320;18.042;2023-07-16T01:38:39;100468.69;;;17.30;100.00
25658;BME280;13517;59.320;18.042;2023-07-16T01:41:04;100510.69;;;17.57;100.00
25658;BME280;13517;59.320;18.042;2023-07-16T01:43:30;100500.59;;;17.58;100.00
25658;BME280;13517;59.320;18.042;2023-07-16T01:45:55;100442.44;;;17.19;100.00
25658;BME280;13517;59.320;18.042;2023-07-16T01:48:31;100504.22;;;17.58;100.00
25658;BME280;13517;59.320;18.042;2023-07-16T01:50:57;100494.03;;;17.50;100.00
25658;BME280;13517;59.320;18.042;2023-07-16T01:53:22;100507.22;;;17.65;100.00
25658;BME280;13517;59.320;18.042;2023-07-16T01:55:48;100434.13;;;17.21;100.00
25658;BME280;13517;59.320;18.042;2023-07-16T01:58:13;100471.78;;;17.45;100.00
25658;BME280;13517;59.320;18.042;2023-07-16T02:00:39;100516.66;;;17.70;100.00
25658;BME280;13517;59.320;18.042;2023-07-16T02:03:04;100477.97;;;17.47;100.00
25658;BME280;13517;59.320;18.042;2023-07-16T02:05:30;100495.66;;;17.71;100.00
25658;BME280;13517;59.320;18.042;2023-07-16T02:07:55;100496.84;;;17.68;100.00
25658;BME280;13517;59.320;18.042;2023-07-16T02:10:20;100491.66;;;17.65;100.00
25658;BME280;13517;59.320;18.042;2023-07-16T02:12:46;100506.53;;;17.81;100.00
25658;BME280;13517;59.320;18.042;2023-07-16T02:15:12;100474.44;;;17.65;100.00
25658;BME280;13517;59.320;18.042;2023-07-16T02:17:37;100451.91;;;17.53;99.61
25658;BME280;13517;59.320;18.042;2023-07-16T02:20:03;100502.34;;;17.87;99.68
25658;BME280;13517;59.320;18.042;2023-07-16T02:22:31;100501.00;;;17.91;99.68
25658;BME280;13517;59.320;18.042;2023-07-16T02:24:57;100471.97;;;17.90;99.43
25658;BME280;13517;59.320;18.042;2023-07-16T02:27:22;100416.66;;;17.60;99.32
25658;BME280;13517;59.320;18.042;2023-07-16T02:29:48;100460.34;;;17.88;99.20
25658;BME280;13517;59.320;18.042;2023-07-16T02:32:13;100486.84;;;18.05;99.41
25658;BME280;13517;59.320;18.042;2023-07-16T02:34:38;100453.53;;;17.92;99.84
25658;BME280;13517;59.320;18.042;2023-07-16T02:37:04;100421.28;;;17.77;100.00
25658;BME280;13517;59.320;18.042;2023-07-16T02:39:29;100473.19;;;18.05;100.00
25658;BME280;13517;59.320;18.042;2023-07-16T02:41:55;100407.38;;;17.70;100.00
25658;BME280;13517;59.320;18.042;2023-07-16T02:44:20;100434.03;;;17.87;100.00
25658;BME280;13517;59.320;18.042;2023-07-16T02:46:45;100440.59;;;17.94;100.00
25658;BME280;13517;59.320;18.042;2023-07-16T02:49:11;100444.63;;;17.90;100.00
25658;BME280;13517;59.320;18.042;2023-07-16T02:51:36;100423.47;;;17.74;100.00
25658;BME280;13517;59.320;18.042;2023-07-16T02:54:02;100447.69;;;17.87;100.00
25658;BME280;13517;59.320;18.042;2023-07-16T02:56:27;100439.25;;;17.80;100.00
25658;BME280;13517;59.320;18.042;2023-07-16T02:58:53;100456.66;;;17.97;100.00
25658;BME280;13517;59.320;18.042;2023-07-16T03:01:18;100429.72;;;17.84;100.00
25658;BME280;13517;59.320;18.042;2023-07-16T03:03:44;100442.94;;;17.89;100.00
25658;BME280;13517;59.320;18.042;2023-07-16T03:06:09;100416.06;;;17.66;100.00
25658;BME280;13517;59.320;18.042;2023-07-16T03:08:35;100456.66;;;17.97;100.00
25658;BME280;13517;59.320;18.042;2023-07-16T03:11:00;100426.91;;;17.76;100.00
25658;BME280;13517;59.320;18.042;2023-07-16T03:13:25;100462.75;;;17.91;100.00
25658;BME280;13517;59.320;18.042;2023-07-16T03:15:51;100457.28;;;17.91;100.00
25658;BME280;13517;59.320;18.042;2023-07-16T03:18:19;100399.00;;;17.54;100.00
25658;BME280;13517;59.320;18.042;2023-07-16T03:20:45;100440.59;;;17.94;100.00
25658;BME280;13517;59.320;18.042;2023-07-16T03:23:11;100366.41;;;17.52;100.00
25658;BME280;13517;59.320;18.042;2023-07-16T03:25:36;100417.94;;;17.83;100.00
25658;BME280;13517;59.320;18.042;2023-07-16T03:28:02;100409.34;;;17.78;100.00
25658;BME280;13517;59.320;18.042;2023-07-16T03:30:27;100436.53;;;17.98;100.00
25658;BME280;13517;59.320;18.042;2023-07-16T03:32:52;100434.88;;;17.87;100.00
25658;BME280;13517;59.320;18.042;2023-07-16T03:35:18;100394.41;;;17.54;100.00
25658;BME280;13517;59.320;18.042;2023-07-16T03:37:44;100416.84;;;17.76;100.00
25658;BME280;13517;59.320;18.042;2023-07-16T03:40:17;100423.16;;;17.77;100.00
25658;BME280;13517;59.320;18.042;2023-07-16T03:42:43;100418.25;;;17.80;100.00
25658;BME280;13517;59.320;18.042;2023-07-16T03:45:10;100421.81;;;17.81;100.00
25658;BME280;13517;59.320;18.042;2023-07-16T03:47:36;100390.75;;;17.64;100.00
25658;BME280;13517;59.320;18.042;2023-07-16T03:50:02;100411.97;;;17.70;100.00
25658;BME280;13517;59.320;18.042;2023-07-16T03:52:27;100361.28;;;17.39;100.00
25658;BME280;13517;59.320;18.042;2023-07-16T03:54:54;100352.66;;;17.44;100.00
25658;BME280;13517;59.320;18.042;2023-07-16T03:57:20;100376.72;;;17.59;100.00
25658;BME280;13517;59.320;18.042;2023-07-16T03:59:46;100376.72;;;17.59;100.00
25658;BME280;13517;59.320;18.042;2023-07-16T04:02:11;100324.88;;;17.31;100.00
25658;BME280;13517;59.320;18.042;2023-07-16T04:04:36;100344.91;;;17.39;100.00
25658;BME280;13517;59.320;18.042;2023-07-16T04:07:02;100361.50;;;17.56;100.00
25658;BME280;13517;59.320;18.042;2023-07-16T04:09:27;100337.72;;;17.38;100.00
25658;BME280;13517;59.320;18.042;2023-07-16T04:11:53;100353.03;;;17.49;100.00
25658;BME280;13517;59.320;18.042;2023-07-16T04:14:18;100300.78;;;17.26;100.00
25658;BME280;13517;59.320;18.042;2023-07-16T04:16:43;100316.22;;;17.35;100.00
25658;BME280;13517;59.320;18.042;2023-07-16T04:19:09;100315.59;;;17.41;100.00
25658;BME280;13517;59.320;18.042;2023-07-16T04:21:35;100299.44;;;17.30;100.00
25658;BME280;13517;59.320;18.042;2023-07-16T04:24:02;100279.84;;;17.35;100.00
25658;BME280;13517;59.320;18.042;2023-07-16T04:26:28;100301.09;;;17.41;100.00
25658;BME280;13517;59.320;18.042;2023-07-16T04:28:53;100231.50;;;17.09;100.00
25658;BME280;13517;59.320;18.042;2023-07-16T04:31:19;100225.03;;;17.10;100.00
25658;BME280;13517;59.320;18.042;2023-07-16T04:33:44;100227.28;;;17.14;100.00
25658;BME280;13517;59.320;18.042;2023-07-16T04:36:09;100251.47;;;17.27;100.00
25658;BME280;13517;59.320;18.042;2023-07-16T04:38:35;100228.13;;;17.15;100.00
25658;BME280;13517;59.320;18.042;2023-07-16T04:41:01;100254.66;;;17.41;100.00
25658;BME280;13517;59.320;18.042;2023-07-16T04:43:26;100220.19;;;17.22;100.00
25658;BME280;13517;59.320;18.042;2023-07-16T04:45:51;100169.25;;;16.94;100.00
25658;BME280;13517;59.320;18.042;2023-07-16T04:48:17;100243.75;;;17.41;100.00
25658;BME280;13517;59.320;18.042;2023-07-16T04:50:42;100224.41;;;17.34;100.00
25658;BME280;13517;59.320;18.042;2023-07-16T04:53:07;100164.28;;;17.08;100.00
25658;BME280;13517;59.320;18.042;2023-07-16T04:55:37;100227.28;;;17.51;100.00
25658;BME280;13517;59.320;18.042;2023-07-16T04:58:02;100195.00;;;17.46;100.00
25658;BME280;13517;59.320;18.042;2023-07-16T05:00:28;100197.09;;;17.52;100.00
25658;BME280;13517;59.320;18.042;2023-07-16T05:02:53;100223.69;;;17.68;100.00
25658;BME280;13517;59.320;18.042;2023-07-16T05:05:19;100206.75;;;17.65;100.00
25658;BME280;13517;59.320;18.042;2023-07-16T05:07:44;100190.66;;;17.62;100.00
25658;BME280;13517;59.320;18.042;2023-07-16T05:10:10;100183.72;;;17.67;100.00
25658;BME280;13517;59.320;18.042;2023-07-16T05:12:35;100192.53;;;17.79;100.00
25658;BME280;13517;59.320;18.042;2023-07-16T05:15:01;100160.19;;;17.75;100.00
25658;BME280;13517;59.320;18.042;2023-07-16T05:17:26;100175.69;;;17.92;100.00
25658;BME280;13517;59.320;18.042;2023-07-16T05:19:52;100146.47;;;17.93;100.00
25658;BME280;13517;59.320;18.042;2023-07-16T05:22:17;100140.53;;;17.97;100.00
25658;BME280;13517;59.320;18.042;2023-07-16T05:24:42;100142.16;;;18.08;100.00
25658;BME280;13517;59.320;18.042;2023-07-16T05:27:08;100088.44;;;17.99;100.00
25658;BME280;13517;59.320;18.042;2023-07-16T05:29:34;100137.69;;;18.42;100.00
25658;BME280;13517;59.320;18.042;2023-07-16T05:31:59;100151.06;;;18.54;100.00
25658;BME280;13517;59.320;18.042;2023-07-16T05:34:25;100104.72;;;18.44;100.00
25658;BME280;13517;59.320;18.042;2023-07-16T05:36:53;100057.84;;;18.30;100.00
25658;BME280;13517;59.320;18.042;2023-07-16T05:39:20;100105.94;;;18.74;100.00
25658;BME280;13517;59.320;18.042;2023-07-16T05:41:45;100089.72;;;18.73;100.00
25658;BME280;13517;59.320;18.042;2023-07-16T05:44:10;100067.13;;;18.62;100.00
25658;BME280;13517;59.320;18.042;2023-07-16T05:46:36;100097.94;;;18.89;100.00
25658;BME280;13517;59.320;18.042;2023-07-16T05:49:01;100069.03;;;18.70;100.00
25658;BME280;13517;59.320;18.042;2023-07-16T05:51:26;100044.94;;;18.74;100.00
25658;BME280;13517;59.320;18.042;2023-07-16T05:53:52;100077.09;;;19.13;100.00
25658;BME280;13517;59.320;18.042;2023-07-16T05:56:18;100115.41;;;19.55;100.00
25658;BME280;13517;59.320;18.042;2023-07-16T05:58:43;100116.03;;;19.82;100.00
25658;BME280;13517;59.320;18.042;2023-07-16T06:01:08;100126.75;;;20.08;100.00
25658;BME280;13517;59.320;18.042;2023-07-16T06:03:34;100080.69;;;20.04;100.00
25658;BME280;13517;59.320;18.042;2023-07-16T06:05:59;99992.41;;;19.68;100.00
25658;BME280;13517;59.320;18.042;2023-07-16T06:08:25;100056.63;;;20.22;100.00
25658;BME280;13517;59.320;18.042;2023-07-16T06:10:51;100084.28;;;20.44;100.00
25658;BME280;13517;59.320;18.042;2023-07-16T06:13:16;100046.50;;;20.23;100.00
25658;BME280;13517;59.320;18.042;2023-07-16T06:15:42;100095.91;;;20.46;100.00
25658;BME280;13517;59.320;18.042;2023-07-16T06:18:09;100100.69;;;20.52;100.00
25658;BME280;13517;59.320;18.042;2023-07-16T06:20:34;100054.44;;;20.41;100.00
25658;BME280;13517;59.320;18.042;2023-07-16T06:22:59;100033.38;;;20.41;100.00
25658;BME280;13517;59.320;18.042;2023-07-16T06:25:25;100079.25;;;20.79;100.00
25658;BME280;13517;59.320;18.042;2023-07-16T06:27:50;100077.53;;;20.78;100.00
25658;BME280;13517;59.320;18.042;2023-07-16T06:30:16;100074.41;;;20.81;100.00
25658;BME280;13517;59.320;18.042;2023-07-16T06:32:41;100067.59;;;20.77;100.00
25658;BME280;13517;59.320;18.042;2023-07-16T06:35:07;100075.63;;;20.79;100.00
25658;BME280;13517;59.320;18.042;2023-07-16T06:37:33;100073.09;;;20.77;100.00
25658;BME280;13517;59.320;18.042;2023-07-16T06:39:58;100003.56;;;20.38;100.00
25658;BME280;13517;59.320;18.042;2023-07-16T06:42:24;100053.75;;;20.71;100.00
25658;BME280;13517;59.320;18.042;2023-07-16T06:44:49;100028.38;;;20.45;100.00
25658;BME280;13517;59.320;18.042;2023-07-16T06:47:15;100034.94;;;20.36;100.00
25658;BME280;13517;59.320;18.042;2023-07-16T06:49:40;100059.44;;;20.37;100.00
25658;BME280;13517;59.320;18.042;2023-07-16T06:52:06;100045.28;;;20.25;100.00
25658;BME280;13517;59.320;18.042;2023-07-16T06:54:31;100038.81;;;20.18;100.00
25658;BME280;13517;59.320;18.042;2023-07-16T06:56:57;100060.31;;;20.38;100.00
25658;BME280;13517;59.320;18.042;2023-07-16T06:59:22;100035.69;;;20.30;100.00
25658;BME280;13517;59.320;18.042;2023-07-16T07:01:48;100047.97;;;20.34;100.00
25658;BME280;13517;59.320;18.042;2023-07-16T07:04:13;100065.19;;;20.51;100.00
25658;BME280;13517;59.320;18.042;2023-07-16T07:06:38;100047.75;;;20.44;100.00
25658;BME280;13517;59.320;18.042;2023-07-16T07:09:04;100067.75;;;20.52;100.00
25658;BME280;13517;59.320;18.042;2023-07-16T07:11:31;100035.50;;;20.31;100.00
25658;BME280;13517;59.320;18.042;2023-07-16T07:13:56;100017.25;;;20.15;100.00
25658;BME280;13517;59.320;18.042;2023-07-16T07:16:23;100070.66;;;20.51;100.00
25658;BME280;13517;59.320;18.042;2023-07-16T07:18:48;100068.78;;;20.51;100.00
25658;BME280;13517;59.320;18.042;2023-07-16T07:21:14;100013.09;;;20.19;100.00
25658;BME280;13517;59.320;18.042;2023-07-16T07:23:39;100049.34;;;20.38;100.00
25658;BME280;13517;59.320;18.042;2023-07-16T07:26:05;100042.19;;;20.28;100.00
25658;BME280;13517;59.320;18.042;2023-07-16T07:28:31;100026.03;;;20.10;100.00
25658;BME280;13517;59.320;18.042;2023-07-16T07:30:56;100046.69;;;20.21;100.00
25658;BME280;13517;59.320;18.042;2023-07-16T07:33:22;100037.59;;;19.81;100.00
25658;BME280;13517;59.320;18.042;2023-07-16T07:35:47;100075.59;;;19.84;100.00
25658;BME280;13517;59.320;18.042;2023-07-16T07:38:13;100059.56;;;19.72;100.00
25658;BME280;13517;59.320;18.042;2023-07-16T07:40:38;100108.28;;;20.02;100.00
25658;BME280;13517;59.320;18.042;2023-07-16T07:43:03;100115.28;;;20.05;100.00
25658;BME280;13517;59.320;18.042;2023-07-16T07:45:29;100105.31;;;20.20;100.00
25658;BME280;13517;59.320;18.042;2023-07-16T07:47:54;100070.22;;;20.07;100.00
25658;BME280;13517;59.320;18.042;2023-07-16T07:50:20;100068.19;;;20.09;100.00
25658;BME280;13517;59.320;18.042;2023-07-16T07:52:45;100057.00;;;20.11;100.00
25658;BME280;13517;59.320;18.042;2023-07-16T07:55:11;100074.13;;;20.21;100.00
25658;BME280;13517;59.320;18.042;2023-07-16T07:57:36;100072.09;;;20.15;100.00
25658;BME280;13517;59.320;18.042;2023-07-16T08:00:02;100056.72;;;20.06;100.00
25658;BME280;13517;59.320;18.042;2023-07-16T08:02:28;100029.81;;;19.93;100.00
25658;BME280;13517;59.320;18.042;2023-07-16T08:04:54;100038.38;;;20.06;100.00
25658;BME280;13517;59.320;18.042;2023-07-16T08:07:20;100050.09;;;20.23;100.00
25658;BME280;13517;59.320;18.042;2023-07-16T08:09:46;100057.38;;;20.39;100.00
25658;BME280;13517;59.320;18.042;2023-07-16T08:12:12;100072.75;;;20.49;100.00
25658;BME280;13517;59.320;18.042;2023-07-16T08:14:38;100043.72;;;20.31;100.00
25658;BME280;13517;59.320;18.042;2023-07-16T08:17:04;100091.06;;;20.57;100.00
25658;BME280;13517;59.320;18.042;2023-07-16T08:19:30;100102.66;;;20.67;100.00
25658;BME280;13517;59.320;18.042;2023-07-16T08:21:55;100092.41;;;20.61;100.00
25658;BME280;13517;59.320;18.042;2023-07-16T08:24:20;100067.41;;;20.55;100.00
25658;BME280;13517;59.320;18.042;2023-07-16T08:26:46;100070.94;;;20.64;100.00
25658;BME280;13517;59.320;18.042;2023-07-16T08:29:11;100071.31;;;20.61;100.00
25658;BME280;13517;59.320;18.042;2023-07-16T08:31:37;100095.06;;;20.69;100.00
25658;BME280;13517;59.320;18.042;2023-07-16T08:34:02;100057.38;;;20.39;100.00
25658;BME280;13517;59.320;18.042;2023-07-16T08:36:28;100047.97;;;20.34;100.00
25658;BME280;13517;59.320;18.042;2023-07-16T08:38:53;100044.03;;;20.36;100.00
25658;BME280;13517;59.320;18.042;2023-07-16T08:41:18;100053.47;;;20.34;100.00
25658;BME280;13517;59.320;18.042;2023-07-16T08:43:47;100090.78;;;20.43;100.00
25658;BME280;13517;59.320;18.042;2023-07-16T08:46:15;100104.56;;;20.35;100.00
25658;BME280;13517;59.320;18.042;2023-07-16T08:48:40;100094.72;;;20.09;100.00
25658;BME280;13517;59.320;18.042;2023-07-16T08:51:06;100093.84;;;20.17;100.00
25658;BME280;13517;59.320;18.042;2023-07-16T08:53:32;100067.03;;;19.87;100.00
25658;BME280;13517;59.320;18.042;2023-07-16T08:55:58;100094.06;;;20.07;100.00
25658;BME280;13517;59.320;18.042;2023-07-16T08:58:24;100076.56;;;20.08;100.00
25658;BME280;13517;59.320;18.042;2023-07-16T09:00:50;100030.94;;;19.75;100.00
25658;BME280;13517;59.320;18.042;2023-07-16T09:03:17;100049.25;;;19.74;100.00
25658;BME280;13517;59.320;18.042;2023-07-16T09:05:44;100072.50;;;19.87;100.00
25658;BME280;13517;59.320;18.042;2023-07-16T09:08:10;100087.44;;;19.76;100.00
25658;BME280;13517;59.320;18.042;2023-07-16T09:10:36;100081.50;;;19.64;100.00
25658;BME280;13517;59.320;18.042;2023-07-16T09:13:02;100089.34;;;19.67;100.00
25658;BME280;13517;59.320;18.042;2023-07-16T09:15:28;100084.03;;;19.66;100.00
25658;BME280;13517;59.320;18.042;2023-07-16T09:17:54;100066.97;;;19.47;100.00
25658;BME280;13517;59.320;18.042;2023-07-16T09:20:21;100094.50;;;19.62;100.00
25658;BME280;13517;59.320;18.042;2023-07-16T09:22:49;100075.03;;;19.40;100.00
25658;BME280;13517;59.320;18.042;2023-07-16T09:25:15;100055.88;;;19.24;100.00
25658;BME280;13517;59.320;18.042;2023-07-16T09:27:41;100075.72;;;19.26;100.00
25658;BME280;13517;59.320;18.042;2023-07-16T09:30:07;100101.75;;;19.30;100.00
25658;BME280;13517;59.320;18.042;2023-07-16T09:32:39;100085.50;;;19.12;100.00
25658;BME280;13517;59.320;18.042;2023-07-16T09:35:12;100076.03;;;18.98;100.00
25658;BME280;13517;59.320;18.042;2023-07-16T09:37:39;100085.81;;;19.00;100.00
25658;BME280;13517;59.320;18.042;2023-07-16T09:40:06;100063.56;;;18.78;100.00
25658;BME280;13517;59.320;18.042;2023-07-16T09:42:38;100019.59;;;18.55;100.00
25658;BME280;13517;59.320;18.042;2023-07-16T09:45:05;100081.19;;;19.01;100.00
25658;BME280;13517;59.320;18.042;2023-07-16T09:47:32;100064.22;;;18.64;100.00
25658;BME280;13517;59.320;18.042;2023-07-16T09:49:57;100071.84;;;18.27;100.00
25658;BME280;13517;59.320;18.042;2023-07-16T09:52:25;100177.72;;;18.60;100.00
25658;BME280;13517;59.320;18.042;2023-07-16T09:54:52;100165.19;;;18.41;100.00
25658;BME280;13517;59.320;18.042;2023-07-16T09:57:21;100173.25;;;18.42;100.00
25658;BME280;13517;59.320;18.042;2023-07-16T09:59:47;100176.88;;;18.16;100.00
25658;BME280;13517;59.320;18.042;2023-07-16T10:02:14;100194.25;;;18.07;100.00
25658;BME280;13517;59.320;18.042;2023-07-16T10:04:40;100229.78;;;18.07;100.00
25658;BME280;13517;59.320;18.042;2023-07-16T10:07:05;100228.97;;;17.96;100.00
25658;BME280;13517;59.320;18.042;2023-07-16T10:09:51;100210.97;;;17.86;100.00
25658;BME280;13517;59.320;18.042;2023-07-16T10:12:18;100204.94;;;17.74;100.00
25658;BME280;13517;59.320;18.042;2023-07-16T10:14:55;100129.25;;;17.21;100.00
25658;BME280;13517;59.320;18.042;2023-07-16T10:17:25;100181.47;;;17.63;100.00
25658;BME280;13517;59.320;18.042;2023-07-16T10:20:01;100201.06;;;17.58;100.00
25658;BME280;13517;59.320;18.042;2023-07-16T10:25:25;100188.72;;;17.54;100.00
25658;BME280;13517;59.320;18.042;2023-07-16T10:27:53;100166.19;;;17.52;100.00
25658;BME280;13517;59.320;18.042;2023-07-16T10:30:19;100171.59;;;17.70;100.00
25658;BME280;13517;59.320;18.042;2023-07-16T10:32:45;100123.94;;;17.64;100.00
25658;BME280;13517;59.320;18.042;2023-07-16T10:35:11;100119.03;;;17.68;100.00
25658;BME280;13517;59.320;18.042;2023-07-16T10:37:39;100136.94;;;17.97;100.00
25658;BME280;13517;59.320;18.042;2023-07-16T10:40:05;100126.38;;;18.02;100.00
25658;BME280;13517;59.320;18.042;2023-07-16T10:42:34;100058.28;;;17.74;100.00
25658;BME280;13517;59.320;18.042;2023-07-16T10:45:04;100057.94;;;17.77;100.00
25658;BME280;13517;59.320;18.042;2023-07-16T10:47:35;100101.19;;;18.08;100.00
25658;BME280;13517;59.320;18.042;2023-07-16T10:50:03;100136.75;;;18.25;100.00
25658;BME280;13517;59.320;18.042;2023-07-16T10:52:29;100159.66;;;18.24;100.00
25658;BME280;13517;59.320;18.042;2023-07-16T10:54:55;100112.16;;;17.90;100.00
25658;BME280;13517;59.320;18.042;2023-07-16T10:57:24;100098.66;;;17.89;100.00
25658;BME280;13517;59.320;18.042;2023-07-16T10:59:54;100197.28;;;18.30;100.00
25658;BME280;13517;59.320;18.042;2023-07-16T11:02:21;100217.47;;;18.37;100.00
25658;BME280;13517;59.320;18.042;2023-07-16T11:04:47;100208.78;;;18.42;100.00
25658;BME280;13517;59.320;18.042;2023-07-16T11:07:14;100183.28;;;18.33;100.00
25658;BME280;13517;59.320;18.042;2023-07-16T11:09:53;100163.91;;;18.18;100.00
25658;BME280;13517;59.320;18.042;2023-07-16T11:12:21;100180.25;;;18.45;100.00
25658;BME280;13517;59.320;18.042;2023-07-16T11:14:52;100212.75;;;18.56;100.00
25658;BME280;13517;59.320;18.042;2023-07-16T11:17:18;100143.28;;;18.32;100.00
25658;BME280;13517;59.320;18.042;2023-07-16T11:19:46;100172.06;;;18.53;100.00
25658;BME280;13517;59.320;18.042;2023-07-16T11:22:12;100191.47;;;18.68;100.00
25658;BME280;13517;59.320;18.042;2023-07-16T11:24:39;100032.25;;;17.96;100.00
25658;BME280;13517;59.320;18.042;2023-07-16T11:27:12;100097.88;;;18.56;100.00
25658;BME280;13517;59.320;18.042;2023-07-16T11:29:39;100150.59;;;18.83;100.00
25658;BME280;13517;59.320;18.042;2023-07-16T11:32:05;100190.97;;;18.81;100.00
25658;BME280;13517;59.320;18.042;2023-07-16T11:34:30;100194.03;;;18.78;100.00
25658;BME280;13517;59.320;18.042;2023-07-16T11:37:07;100123.84;;;18.44;100.00
25658;BME280;13517;59.320;18.042;2023-07-16T11:39:33;100243.47;;;19.36;100.00
25658;BME280;13517;59.320;18.042;2023-07-16T11:41:58;100167.78;;;19.18;100.00
25658;BME280;13517;59.320;18.042;2023-07-16T11:44:24;100209.03;;;19.58;100.00
25658;BME280;13517;59.320;18.042;2023-07-16T11:46:49;100166.59;;;19.54;100.00
25658;BME280;13517;59.320;18.042;2023-07-16T11:49:15;100157.97;;;19.91;100.00
25658;BME280;13517;59.320;18.042;2023-07-16T11:51:41;100195.88;;;20.44;100.00
25658;BME280;13517;59.320;18.042;2023-07-16T11:54:10;100186.72;;;20.60;100.00
25658;BME280;13517;59.320;18.042;2023-07-16T11:56:35;100230.13;;;20.96;100.00
25658;BME280;13517;59.320;18.042;2023-07-16T11:59:02;100199.03;;;20.72;100.00
25658;BME280;13517;59.320;18.042;2023-07-16T12:01:28;100238.75;;;20.93;100.00
25658;BME280;13517;59.320;18.042;2023-07-16T12:03:53;100215.41;;;20.89;100.00
25658;BME280;13517;59.320;18.042;2023-07-16T12:06:19;100189.69;;;20.81;100.00
25658;BME280;13517;59.320;18.042;2023-07-16T12:08:44;100196.84;;;20.99;100.00
25658;BME280;13517;59.320;18.042;2023-07-16T12:11:10;100201.06;;;21.10;100.00
25658;BME280;13517;59.320;18.042;2023-07-16T12:13:35;100227.50;;;21.34;100.00
25658;BME280;13517;59.320;18.042;2023-07-16T12:16:00;100246.22;;;21.54;100.00
25658;BME280;13517;59.320;18.042;2023-07-16T12:18:26;100208.50;;;21.48;100.00
25658;BME280;13517;59.320;18.042;2023-07-16T12:20:52;100225.50;;;21.67;100.00
25658;BME280;13517;59.320;18.042;2023-07-16T12:23:17;100223.22;;;21.55;100.00
25658;BME280;13517;59.320;18.042;2023-07-16T12:25:42;100229.81;;;21.46;100.00
25658;BME280;13517;59.320;18.042;2023-07-16T12:28:08;100195.03;;;21.15;100.00
25658;BME280;13517;59.320;18.042;2023-07-16T12:30:54;100266.81;;;21.35;100.00